Time;durP1;ratioP1;P1;durP2;ratioP2;P2;SDS_P1;SDS_P2;PMS_P1;PMS_P2;Temp;Humidity;BMP_temperature;BMP_pressure;BME280_temperature;BME280_humidity;BME280_pressure;Samples;Min_cycle;Max_cycle;Signal;HPM_P1;HPM_P2
2022/09/27 00:01:32;;;;;;;4.95;3.20;;;;;;;11.67;100.00;98635.72;8367102;28;20506;-51
2022/09/27 00:05:32;;;;;;;8.13;3.30;;;;;;;11.66;100.00;98639.47;8338175;28;20490;-50
2022/09/27 00:09:33;;;;;;;9.23;3.08;;;;;;;11.64;100.00;98646.94;8338556;28;20037;-51
2022/09/27 00:13:33;;;;;;;6.50;2.95;;;;;;;11.60;100.00;98645.63;8363016;28;20128;-52
2022/09/27 00:17:34;;;;;;;3.72;3.10;;;;;;;11.57;100.00;98656.84;8392717;28;20449;-51
2022/09/27 00:21:35;;;;;;;7.57;3.13;;;;;;;11.54;100.00;98661.78;8393880;28;20115;-52
2022/09/27 00:25:35;;;;;;;12.02;4.63;;;;;;;11.47;100.00;98672.53;8394591;28;20079;-53
2022/09/27 00:29:36;;;;;;;4.75;3.85;;;;;;;11.46;100.00;98670.00;8389203;28;20513;-51
2022/09/27 00:33:37;;;;;;;7.80;3.65;;;;;;;11.44;100.00;98678.31;8394111;28;20055;-52
2022/09/27 00:37:37;;;;;;;7.90;3.42;;;;;;;11.40;100.00;98682.44;8390910;28;20040;-51
2022/09/27 00:41:37;;;;;;;8.18;2.13;;;;;;;11.38;100.00;98679.06;8355599;28;20044;-54
2022/09/27 00:45:38;;;;;;;5.47;1.52;;;;;;;11.36;100.00;98681.16;8358811;28;20103;-51
2022/09/27 00:49:46;;;;;;;3.75;1.10;;;;;;;11.30;100.00;98676.50;8361618;28;20036;-51
2022/09/27 00:53:51;;;;;;;4.03;1.05;;;;;;;11.31;100.00;98678.16;8360929;28;20032;-53
2022/09/27 00:57:52;;;;;;;5.78;1.42;;;;;;;11.30;100.00;98671.09;8366261;28;20568;-50
2022/09/27 01:01:53;;;;;;;5.20;1.15;;;;;;;11.32;100.00;98671.72;8393210;28;20398;-51
2022/09/27 01:05:54;;;;;;;5.25;1.30;;;;;;;11.30;100.00;98676.50;8393022;28;20083;-51
2022/09/27 01:09:54;;;;;;;6.03;2.05;;;;;;;11.31;100.00;98677.31;8385401;28;20064;-54
2022/09/27 01:14:23;;;;;;;5.53;1.63;;;;;;;11.34;100.00;98682.34;8359664;28;20538;-52
2022/09/27 01:18:53;;;;;;;5.55;1.42;;;;;;;11.33;100.00;98681.53;8360149;28;20131;-50
2022/09/27 01:23:32;;;;;;;5.35;1.58;;;;;;;11.34;100.00;98688.59;8360018;28;20115;-50
2022/09/27 01:32:17;;;;;;;7.57;1.73;;;;;;;11.36;100.00;98681.16;8298195;28;20394;-52
2022/09/27 01:36:29;;;;;;;7.45;1.98;;;;;;;11.38;100.00;98689.91;8287199;28;20045;-51
2022/09/27 01:40:57;;;;;;;9.13;2.00;;;;;;;11.41;100.00;98692.22;8285841;28;20049;-49
2022/09/27 01:45:16;;;;;;;6.28;1.92;;;;;;;11.42;100.00;98696.63;8286054;28;20038;-50
2022/09/27 01:49:22;;;;;;;9.13;1.88;;;;;;;11.45;100.00;98701.66;8286544;28;20042;-51
2022/09/27 01:53:32;;;;;;;5.93;1.70;;;;;;;11.44;100.00;98697.25;8318529;28;20481;-49
2022/09/27 01:57:39;;;;;;;3.50;1.85;;;;;;;11.42;100.00;98695.78;8307771;28;20439;-50
2022/09/27 02:01:44;;;;;;;7.20;2.15;;;;;;;11.41;100.00;98700.34;8318339;28;20037;-51
2022/09/27 02:05:51;;;;;;;5.68;2.10;;;;;;;11.41;100.00;98705.75;8318986;28;20030;-50
2022/09/27 02:09:58;;;;;;;7.25;2.00;;;;;;;11.41;100.00;98705.75;8318805;28;20045;-49
2022/09/27 02:14:05;;;;;;;4.47;2.30;;;;;;;11.39;100.00;98699.72;8318058;28;20123;-50
2022/09/27 02:18:16;;;;;;;6.18;2.15;;;;;;;11.40;100.00;98709.50;8317151;28;20069;-52
2022/09/27 02:22:42;;;;;;;3.78;1.67;;;;;;;11.40;100.00;98706.78;8317879;28;20451;-52
2022/09/27 02:26:47;;;;;;;2.72;1.85;;;;;;;11.37;100.00;98715.28;8317795;28;20049;-51
2022/09/27 02:30:47;;;;;;;5.07;2.10;;;;;;;11.29;100.00;98712.66;8317764;28;20044;-51
2022/09/27 02:34:49;;;;;;;4.55;2.05;;;;;;;11.25;100.00;98721.34;8318572;28;20065;-51
2022/09/27 02:38:50;;;;;;;5.35;1.95;;;;;;;11.19;100.00;98725.66;8322488;28;20042;-52
2022/09/27 02:42:51;;;;;;;3.88;1.83;;;;;;;11.15;100.00;98732.47;8298532;28;20030;-53
2022/09/27 02:47:21;;;;;;;4.18;1.55;;;;;;;11.08;100.00;98728.84;8296501;28;20451;-55
2022/09/27 02:52:01;;;;;;;2.45;1.00;;;;;;;11.04;100.00;98735.66;8295226;28;20044;-54
2022/09/27 02:56:25;;;;;;;3.10;1.60;;;;;;;10.97;100.00;98729.31;8295462;28;20038;-48
2022/09/27 03:00:36;;;;;;;2.88;1.27;;;;;;;10.95;100.00;98738.66;8295549;28;20038;-48
2022/09/27 03:04:46;;;;;;;4.60;1.58;;;;;;;10.91;100.00;98745.44;8261404;28;20489;-50
2022/09/27 03:08:48;;;;;;;5.00;0.68;;;;;;;10.87;100.00;98744.97;8262815;28;20121;-48
2022/09/27 03:12:49;;;;;;;3.80;0.85;;;;;;;10.87;100.00;98750.38;8251376;28;20058;-51
2022/09/27 03:16:49;;;;;;;3.45;0.70;;;;;;;10.91;100.00;98753.53;8262499;28;20096;-48
2022/09/27 03:20:52;;;;;;;2.35;0.80;;;;;;;10.93;100.00;98755.06;8261384;28;20065;-48
2022/09/27 03:24:53;;;;;;;5.63;1.00;;;;;;;10.98;100.00;98763.44;8262350;28;20030;-50
2022/09/27 03:28:53;;;;;;;4.57;0.83;;;;;;;10.96;100.00;98770.91;8270114;28;20046;-49
2022/09/27 03:32:53;;;;;;;1.00;0.70;;;;;;;10.93;100.00;98771.28;8261927;28;20281;-52
2022/09/27 03:36:54;;;;;;;10.63;1.43;;;;;;;10.89;100.00;98775.34;8262440;28;20041;-48
2022/09/27 03:40:54;;;;;;;5.22;1.33;;;;;;;10.88;100.00;98776.38;8261364;28;20882;-49
2022/09/27 03:44:55;;;;;;;4.78;1.00;;;;;;;10.86;100.00;98783.84;8261939;28;20070;-49
2022/09/27 03:48:55;;;;;;;5.20;1.30;;;;;;;10.83;100.00;98781.50;8262104;28;20403;-51
2022/09/27 03:52:55;;;;;;;5.88;1.40;;;;;;;10.74;100.00;98774.50;8259033;28;20030;-49
2022/09/27 03:56:56;;;;;;;3.63;1.25;;;;;;;10.66;100.00;98790.81;8288297;28;20495;-49
2022/09/27 04:00:56;;;;;;;4.90;1.70;;;;;;;10.61;100.00;98787.81;8292783;28;20042;-49
2022/09/27 04:04:57;;;;;;;4.85;1.38;;;;;;;10.67;100.00;98792.47;8292383;28;20034;-49
2022/09/27 04:08:57;;;;;;;4.13;1.25;;;;;;;10.75;100.00;98780.75;8287507;28;20034;-48
2022/09/27 04:12:57;;;;;;;2.50;1.15;;;;;;;10.76;100.00;98787.81;8272601;28;20042;-48
2022/09/27 04:16:58;;;;;;;3.85;1.30;;;;;;;10.68;100.00;98783.38;8259713;28;20536;-49
2022/09/27 04:20:58;;;;;;;4.72;1.38;;;;;;;10.60;100.00;98786.13;8255158;28;20035;-49
2022/09/27 04:24:59;;;;;;;6.18;1.40;;;;;;;10.52;100.00;98777.25;8248244;28;20060;-51
2022/09/27 04:28:59;;;;;;;2.90;1.30;;;;;;;10.38;100.00;98783.47;8258793;28;20522;-48
2022/09/27 04:33:00;;;;;;;4.55;1.48;;;;;;;10.28;100.00;98789.09;8258822;28;20065;-47
2022/09/27 04:37:00;;;;;;;3.75;1.25;;;;;;;10.23;100.00;98788.81;8287099;28;20117;-48
2022/09/27 04:41:01;;;;;;;6.13;1.67;;;;;;;10.13;100.00;98782.81;8283431;28;20034;-47
2022/09/27 04:45:01;;;;;;;1.98;0.98;;;;;;;10.15;100.00;98786.16;8286877;28;20522;-47
2022/09/27 04:49:02;;;;;;;7.40;1.50;;;;;;;10.18;100.00;98785.00;8282299;28;20415;-47
2022/09/27 04:53:03;;;;;;;5.22;1.85;;;;;;;10.25;100.00;98797.59;8285013;28;20053;-49
2022/09/27 04:57:04;;;;;;;2.78;1.05;;;;;;;10.30;100.00;98794.31;8260081;28;20037;-48
2022/09/27 05:01:06;;;;;;;6.45;1.23;;;;;;;10.24;100.00;98806.69;8258514;28;20073;-49
2022/09/27 05:05:06;;;;;;;2.88;1.10;;;;;;;10.24;100.00;98808.56;8252498;28;20188;-50
2022/09/27 05:09:07;;;;;;;3.83;1.10;;;;;;;10.26;100.00;98804.66;8257769;28;20105;-48
2022/09/27 05:13:07;;;;;;;5.00;1.17;;;;;;;10.30;100.00;98827.56;8285482;28;20518;-51
2022/09/27 05:17:08;;;;;;;3.90;1.05;;;;;;;10.33;100.00;98827.22;8282129;28;20089;-51
2022/09/27 05:21:09;;;;;;;2.38;1.25;;;;;;;10.38;100.00;98830.22;8283685;28;20108;-49
2022/09/27 05:25:10;;;;;;;4.57;1.30;;;;;;;10.43;100.00;98844.00;8285364;28;20543;-48
2022/09/27 05:29:10;;;;;;;7.63;1.80;;;;;;;10.48;100.00;98851.56;8285666;28;20056;-48
2022/09/27 05:33:10;;;;;;;3.70;1.10;;;;;;;10.45;100.00;98851.94;8287743;28;20061;-47
2022/09/27 05:37:11;;;;;;;3.67;1.75;;;;;;;10.58;100.00;98846.78;8284754;28;20291;-48
2022/09/27 05:41:12;;;;;;;9.98;1.17;;;;;;;10.42;100.00;98847.75;8287190;28;20037;-48
2022/09/27 05:45:13;;;;;;;2.05;1.27;;;;;;;10.44;100.00;98852.97;8271862;28;20049;-48
2022/09/27 05:49:13;;;;;;;3.67;0.90;;;;;;;10.47;100.00;98849.91;8279375;28;20557;-48
2022/09/27 05:53:13;;;;;;;5.55;1.60;;;;;;;10.61;100.00;98858.06;8276126;28;20057;-49
2022/09/27 05:57:14;;;;;;;5.63;1.55;;;;;;;10.77;100.00;98862.50;8276728;28;20125;-49
2022/09/27 06:01:15;;;;;;;6.13;1.50;;;;;;;10.97;100.00;98877.16;8285490;28;20507;-49
2022/09/27 06:05:16;;;;;;;10.95;1.20;;;;;;;10.99;100.00;98862.47;8284245;28;20049;-48
2022/09/27 06:09:16;;;;;;;2.50;1.33;;;;;;;10.92;100.00;98860.69;8275389;28;20078;-48
2022/09/27 06:13:17;;;;;;;5.68;1.45;;;;;;;10.97;100.00;98858.25;8251515;28;20038;-48
2022/09/27 06:17:17;;;;;;;4.03;1.58;;;;;;;10.99;100.00;98862.47;8255692;28;20067;-48
2022/09/27 06:21:18;;;;;;;2.47;1.30;;;;;;;10.99;100.00;98851.66;8260732;28;20031;-48
2022/09/27 06:25:19;;;;;;;4.10;1.40;;;;;;;11.00;100.00;98860.56;8251435;28;20368;-48
2022/09/27 06:29:19;;;;;;;5.28;1.27;;;;;;;11.03;100.00;98862.91;8260564;28;20046;-51
2022/09/27 06:33:20;;;;;;;4.63;1.38;;;;;;;11.03;100.00;98863.75;8259439;28;20061;-48
2022/09/27 06:37:25;;;;;;;4.20;1.08;;;;;;;11.04;100.00;98870.03;8261130;28;20035;-48
2022/09/27 06:41:25;;;;;;;3.80;1.00;;;;;;;10.99;100.00;98878.69;8259753;28;20038;-48
2022/09/27 06:45:26;;;;;;;3.63;1.20;;;;;;;10.95;100.00;98882.75;8260427;28;20034;-48
2022/09/27 06:49:28;;;;;;;4.28;1.30;;;;;;;10.93;100.00;98881.28;8254669;28;20126;-48
2022/09/27 06:53:28;;;;;;;5.15;1.10;;;;;;;10.96;100.00;98881.75;8253249;28;20110;-47
2022/09/27 07:01:51;;;;;;;3.15;1.20;;;;;;;11.39;100.00;98890.94;8281955;28;20053;-49
2022/09/27 07:05:55;;;;;;;1.85;0.80;;;;;;;11.77;100.00;98890.69;8291658;28;20137;-47
2022/09/27 07:09:56;;;;;;;4.53;0.82;;;;;;;11.87;100.00;98893.13;8291367;28;20041;-48
2022/09/27 07:13:56;;;;;;;4.15;1.00;;;;;;;11.87;100.00;98891.25;8288591;28;20034;-48
2022/09/27 07:17:58;;;;;;;1.55;0.70;;;;;;;11.64;100.00;98904.06;8291317;28;20038;-51
2022/09/27 07:21:58;;;;;;;1.52;0.73;;;;;;;11.60;100.00;98902.72;8288345;28;20064;-47
2022/09/27 07:26:03;;;;;;;4.55;0.73;;;;;;;11.59;100.00;98908.34;8290878;28;20034;-49
2022/09/27 07:30:06;;;;;;;;;;;;;;;11.60;100.00;98910.84;8288044;28;20049;-50
2022/09/27 07:34:06;;;;;;;6.15;1.00;;;;;;;11.75;100.00;98909.00;8284906;28;19917;-48
2022/09/27 07:38:09;;;;;;;1.58;0.80;;;;;;;11.98;98.96;98908.06;8288851;28;20045;-48
2022/09/27 07:42:10;;;;;;;1.27;0.73;;;;;;;12.14;96.63;98907.84;8289075;28;20038;-48
2022/09/27 07:46:10;;;;;;;5.45;1.00;;;;;;;12.36;94.47;98920.41;8287303;28;20077;-49
2022/09/27 07:50:11;;;;;;;4.07;0.60;;;;;;;12.45;96.25;98921.97;8277989;28;20045;-49
2022/09/27 07:54:11;;;;;;;0.97;0.70;;;;;;;12.33;95.17;98918.06;8282805;28;20399;-49
2022/09/27 07:58:12;;;;;;;1.15;0.70;;;;;;;12.20;95.19;98926.06;8288504;28;20309;-48
2022/09/27 08:02:14;;;;;;;2.33;0.80;;;;;;;12.22;97.29;98926.69;8287624;28;20108;-50
2022/09/27 08:06:15;;;;;;;2.60;0.90;;;;;;;12.15;97.00;98932.03;8293242;28;20038;-47
2022/09/27 08:10:15;;;;;;;1.73;1.02;;;;;;;12.13;96.65;98938.69;8287973;28;20082;-48
2022/09/27 08:14:17;;;;;;;2.42;1.02;;;;;;;12.09;94.55;98937.34;8288403;28;20045;-48
2022/09/27 08:18:20;;;;;;;2.30;0.80;;;;;;;12.11;93.57;98938.03;8289886;28;20466;-50
2022/09/27 08:22:21;;;;;;;3.05;0.88;;;;;;;12.20;93.54;98936.88;8291015;28;20057;-50
2022/09/27 08:26:22;;;;;;;1.30;0.82;;;;;;;12.39;93.51;98933.56;8279753;28;20340;-49
2022/09/27 08:30:23;;;;;;;1.70;0.90;;;;;;;12.61;90.88;98935.28;8285972;28;20049;-49
2022/09/27 08:34:24;;;;;;;2.47;1.20;;;;;;;12.98;91.39;98940.44;8288179;28;20038;-50
2022/09/27 08:38:24;;;;;;;2.53;1.27;;;;;;;12.92;89.96;98939.38;8261101;28;20041;-52
2022/09/27 08:42:36;;;;;;;1.67;1.02;;;;;;;12.89;89.56;98936.19;8250458;28;20042;-49
2022/09/27 08:47:04;;;;;;;3.97;1.20;;;;;;;13.05;90.35;98946.84;8256184;28;20034;-52
2022/09/27 08:51:10;;;;;;;2.33;1.45;;;;;;;13.49;87.71;98950.13;8274807;28;20042;-48
2022/09/27 08:55:50;;;;;;;2.13;1.20;;;;;;;13.67;85.87;98950.47;8274506;28;20112;-48
2022/09/27 09:00:03;;;;;;;2.35;1.30;;;;;;;13.67;85.79;98950.47;8285398;28;20088;-50
2022/09/27 09:04:04;;;;;;;2.15;1.13;;;;;;;13.88;85.31;98961.28;8284867;28;20053;-48
2022/09/27 09:08:44;;;;;;;1.27;1.05;;;;;;;14.01;84.16;98965.94;8287961;28;20120;-52
2022/09/27 09:12:55;;;;;;;3.60;1.85;;;;;;;13.78;84.41;98949.91;8256850;28;20053;-51
2022/09/27 09:17:35;;;;;;;5.13;1.83;;;;;;;14.53;84.16;98952.63;8247510;28;20042;-50
2022/09/27 09:22:04;;;;;;;3.90;1.67;;;;;;;14.77;81.09;98955.66;8243996;28;20039;-49
2022/09/27 09:26:29;;;;;;;2.00;1.45;;;;;;;14.32;82.59;98956.31;8287371;28;20768;-49
2022/09/27 09:31:01;;;;;;;5.82;2.42;;;;;;;13.74;86.18;98951.34;8286632;28;20057;-48
2022/09/27 09:35:08;;;;;;;2.53;1.40;;;;;;;13.52;86.55;98949.72;8282943;28;20141;-50
2022/09/27 09:39:23;;;;;;;3.05;1.50;;;;;;;13.37;88.09;98946.28;8287908;28;20376;-48
2022/09/27 09:43:31;;;;;;;3.53;1.60;;;;;;;13.44;88.08;98944.44;8284421;28;20555;-48
2022/09/27 09:47:38;;;;;;;3.63;1.67;;;;;;;13.57;86.53;98937.22;8285984;28;20033;-50
2022/09/27 09:51:48;;;;;;;3.35;1.10;;;;;;;16.42;76.77;98928.91;8288196;28;20116;-51
2022/09/27 09:55:56;;;;;;;2.90;0.88;;;;;;;17.89;69.08;98933.78;8293202;28;20030;-50
2022/09/27 10:04:18;;;;;;;2.22;1.10;;;;;;;14.58;78.30;98937.34;8434261;27;20120;-50
2022/09/27 10:08:21;;;;;;;1.83;1.35;;;;;;;13.82;81.07;98940.34;8404783;28;20037;-51
2022/09/27 10:12:22;;;;;;;3.42;1.45;;;;;;;13.88;84.13;98936.81;8380585;28;20033;-50
2022/09/27 10:16:25;;;;;;;4.10;1.48;;;;;;;13.99;82.44;98932.72;8381107;28;20590;-49
2022/09/27 10:20:48;;;;;;;3.53;2.05;;;;;;;14.07;81.69;98938.81;8380358;28;20097;-50
2022/09/27 10:24:57;;;;;;;4.05;2.03;;;;;;;13.87;81.54;98929.69;8380359;28;20037;-50
2022/09/27 10:29:12;;;;;;;2.67;1.88;;;;;;;13.61;83.94;98926.81;8388018;28;20489;-48
2022/09/27 10:33:17;;;;;;;3.38;2.20;;;;;;;13.49;83.69;98928.41;8430593;28;20364;-48
2022/09/27 10:37:21;;;;;;;4.03;2.10;;;;;;;13.52;85.04;98922.59;8402823;28;20142;-51
2022/09/27 10:41:30;;;;;;;2.08;1.50;;;;;;;13.42;83.06;98925.63;8383672;28;20033;-49
2022/09/27 10:45:32;;;;;;;3.55;1.50;;;;;;;13.39;84.16;98939.59;8395572;28;20033;-49
2022/09/27 10:49:36;;;;;;;4.97;2.40;;;;;;;13.42;86.00;98927.53;8413563;28;20051;-48
2022/09/27 10:53:36;;;;;;;4.93;2.35;;;;;;;13.49;87.07;98929.25;8389020;28;20446;-49
2022/09/27 10:57:37;;;;;;;4.63;2.70;;;;;;;13.62;87.16;98928.50;8413235;28;20036;-50
2022/09/27 11:01:41;;;;;;;3.85;2.72;;;;;;;13.52;86.04;98928.00;8389929;28;20059;-49
2022/09/27 11:05:42;;;;;;;;;;;;;;;13.47;85.96;98925.03;8399555;28;20044;-48
2022/09/27 11:09:47;;;;;;;5.97;2.83;;;;;;;14.01;85.17;98917.88;8395083;28;20058;-49
2022/09/27 11:14:06;;;;;;;6.20;2.33;;;;;;;14.30;81.81;98917.59;8390074;28;20550;-49
2022/09/27 11:18:17;;;;;;;3.15;2.15;;;;;;;14.29;82.15;98910.50;8393117;28;20039;-51
2022/09/27 11:22:48;;;;;;;9.02;2.92;;;;;;;14.19;84.68;98920.88;8382044;28;20036;-48
2022/09/27 11:27:20;;;;;;;5.03;2.50;;;;;;;14.15;83.60;98913.34;8393306;28;20036;-48
2022/09/27 11:36:03;;;;;;;3.20;2.03;;;;;;;14.61;83.29;98915.19;8404572;27;20399;-48
2022/09/27 11:40:30;;;;;;;9.40;2.47;;;;;;;15.49;79.96;98907.56;8389494;28;20102;-47
2022/09/27 11:45:10;;;;;;;3.47;1.88;;;;;;;15.05;79.03;98907.34;8391008;28;20410;-50
2022/09/27 11:49:40;;;;;;;4.15;2.33;;;;;;;14.43;81.53;98912.25;8354507;28;20037;-48
2022/09/27 11:58:42;;;;;;;5.80;3.33;;;;;;;13.08;95.87;98920.13;8326641;27;20423;-48
2022/09/27 12:03:05;;;;;;;4.95;2.90;;;;;;;12.54;100.00;98920.81;8342336;28;20049;-48
2022/09/27 12:07:25;;;;;;;6.82;2.42;;;;;;;12.21;100.00;98922.31;8327038;28;20030;-50
2022/09/27 12:11:37;;;;;;;3.55;1.85;;;;;;;12.06;100.00;98910.66;8350236;28;20030;-47
2022/09/27 12:15:42;;;;;;;3.22;1.55;;;;;;;12.04;100.00;98913.53;8344738;28;20037;-51
2022/09/27 12:19:50;;;;;;;8.45;1.52;;;;;;;12.33;100.00;98915.38;8334462;28;20192;-47
2022/09/27 12:23:56;;;;;;;2.55;1.48;;;;;;;12.82;99.45;98909.03;8331250;28;20045;-50
2022/09/27 12:28:06;;;;;;;3.42;1.42;;;;;;;13.35;96.08;98899.47;8338981;28;20048;-48
2022/09/27 12:32:20;;;;;;;2.63;1.08;;;;;;;13.90;91.22;98907.56;8345722;28;20038;-51
2022/09/27 12:36:27;;;;;;;3.28;1.35;;;;;;;14.31;89.11;98903.00;8339689;28;20041;-54
2022/09/27 12:40:33;;;;;;;2.40;1.10;;;;;;;14.36;87.97;98905.91;8350370;28;20118;-54
2022/09/27 12:44:38;;;;;;;3.55;0.88;;;;;;;14.24;88.70;98898.56;8350716;28;20111;-52
2022/09/27 12:49:04;;;;;;;1.98;0.82;;;;;;;14.17;88.45;98901.22;8334109;28;20495;-54
2022/09/27 12:53:14;;;;;;;3.08;0.90;;;;;;;13.94;90.74;98895.28;8350470;28;20036;-54
2022/09/27 13:02:09;;;;;;;1.13;0.60;;;;;;;13.89;88.10;98903.19;8268990;28;20419;-51
2022/09/27 13:06:46;;;;;;;3.17;0.88;;;;;;;13.75;88.62;98912.28;8252839;28;20377;-53
2022/09/27 13:11:13;;;;;;;2.22;0.60;;;;;;;13.50;88.69;98909.22;8248411;28;20053;-50
2022/09/27 13:15:20;;;;;;;2.88;0.52;;;;;;;12.80;85.61;98921.94;8252303;28;20255;-51
2022/09/27 13:19:42;;;;;;;4.20;0.50;;;;;;;12.61;85.17;98916.31;8247860;28;20128;-54
2022/09/27 13:27:56;;;;;;;5.13;0.40;;;;;;;12.62;85.39;98907.13;8321171;27;20395;-54
2022/09/27 13:36:24;;;;;;;2.70;0.60;;;;;;;12.72;86.37;98913.09;8381369;27;20357;-52
2022/09/27 13:40:36;;;;;;;3.15;0.60;;;;;;;13.03;87.23;98921.78;8360082;28;20053;-53
2022/09/27 13:44:47;;;;;;;4.75;1.10;;;;;;;13.22;85.17;98919.22;8348766;28;20065;-53
2022/09/27 13:48:55;;;;;;;2.85;1.17;;;;;;;13.23;82.75;98915.47;8328841;28;20125;-50
2022/09/27 13:53:06;;;;;;;1.58;0.80;;;;;;;13.14;82.01;98908.50;8321675;28;20044;-54
2022/09/27 13:57:46;;;;;;;3.03;1.17;;;;;;;13.34;83.95;98909.50;8337045;28;20136;-54
2022/09/27 14:01:51;;;;;;;3.80;1.40;;;;;;;13.46;84.13;98913.38;8322305;28;20042;-54
2022/09/27 14:06:03;;;;;;;8.43;1.45;;;;;;;13.49;85.40;98912.97;8322808;28;20045;-53
2022/09/27 14:10:04;;;;;;;6.82;1.77;;;;;;;13.47;84.55;98909.59;8362837;28;20036;-51
2022/09/27 14:14:06;;;;;;;6.40;1.73;;;;;;;13.49;85.22;98903.97;8369402;28;20043;-51
2022/09/27 14:18:10;;;;;;;6.25;1.25;;;;;;;13.55;83.19;98900.47;8362030;28;20541;-53
2022/09/27 14:22:13;;;;;;;4.53;0.80;;;;;;;13.99;84.32;98903.63;8351159;28;20035;-53
2022/09/27 14:26:24;;;;;;;5.15;1.25;;;;;;;14.16;82.89;98913.13;8353740;28;20146;-52
2022/09/27 14:30:27;;;;;;;1.95;0.75;;;;;;;14.07;81.74;98898.03;8332693;28;20588;-54
2022/09/27 14:34:27;;;;;;;6.68;1.00;;;;;;;13.95;81.51;98902.38;8326991;28;20040;-54
2022/09/27 14:38:31;;;;;;;8.30;1.15;;;;;;;13.64;81.69;98907.41;8336134;28;20687;-53
2022/09/27 14:42:36;;;;;;;5.10;0.83;;;;;;;13.42;82.57;98908.53;8363221;28;20120;-54
2022/09/27 14:46:47;;;;;;;6.13;0.80;;;;;;;13.21;81.20;98927.56;8308678;28;20123;-54
2022/09/27 14:55:22;;;;;;;7.10;1.17;;;;;;;12.90;82.48;98948.75;8385767;27;20404;-49
2022/09/27 14:59:31;;;;;;;1.42;0.50;;;;;;;12.14;87.97;98956.59;8365606;28;20445;-51
2022/09/27 15:03:32;;;;;;;3.65;0.75;;;;;;;11.74;90.12;98961.47;8374364;28;20058;-50
2022/09/27 15:07:42;;;;;;;3.42;0.73;;;;;;;11.61;92.80;98960.38;8372493;28;20128;-51
2022/09/27 15:11:47;;;;;;;4.00;0.60;;;;;;;11.38;94.75;98949.63;8372267;28;20036;-55
2022/09/27 15:15:48;;;;;;;3.75;0.90;;;;;;;11.29;98.15;98950.72;8375038;28;20041;-53
2022/09/27 15:20:26;;;;;;;1.33;0.60;;;;;;;11.36;98.34;98945.44;8369504;28;20506;-51
2022/09/27 15:24:47;;;;;;;6.15;0.70;;;;;;;11.39;97.29;98939.66;8372075;28;20042;-52
2022/09/27 15:28:51;;;;;;;2.25;0.73;;;;;;;11.54;96.86;98938.66;8361554;28;20124;-54
2022/09/27 15:32:55;;;;;;;3.22;0.90;;;;;;;11.69;97.03;98936.00;8377042;28;20040;-51
2022/09/27 15:37:02;;;;;;;4.35;1.15;;;;;;;11.82;96.67;98942.44;8374356;28;20484;-51
2022/09/27 15:41:07;;;;;;;3.13;1.60;;;;;;;11.86;95.35;98946.44;8358000;28;20036;-52
2022/09/27 15:45:25;;;;;;;;;;;;;;;11.86;96.27;98949.16;8378567;28;20032;-54
2022/09/27 15:49:30;;;;;;;2.53;1.20;;;;;;;11.82;94.55;98942.44;8363537;28;19924;-54
2022/09/27 15:53:40;;;;;;;2.75;1.23;;;;;;;11.82;93.94;98947.00;8369756;28;20048;-53
2022/09/27 15:57:43;;;;;;;2.95;1.27;;;;;;;12.03;94.86;98933.53;8350821;28;20120;-53
2022/09/27 16:01:43;;;;;;;5.60;1.50;;;;;;;12.06;94.49;98938.59;8364817;28;20044;-54
2022/09/27 16:05:44;;;;;;;2.97;1.10;;;;;;;12.00;94.54;98933.06;8333609;28;20033;-54
2022/09/27 16:09:45;;;;;;;2.33;1.08;;;;;;;11.95;94.95;98935.53;8353035;28;20124;-53
2022/09/27 16:13:46;;;;;;;2.55;1.10;;;;;;;11.89;96.18;98932.53;8348570;28;20123;-51
2022/09/27 16:17:46;;;;;;;5.50;1.65;;;;;;;11.81;95.92;98919.06;8354588;28;20087;-51
2022/09/27 16:21:47;;;;;;;3.63;1.20;;;;;;;11.67;95.95;98916.38;8353190;28;20099;-51
2022/09/27 16:25:48;;;;;;;5.00;2.00;;;;;;;11.61;98.56;98907.09;8355092;28;20033;-49
2022/09/27 16:29:48;;;;;;;4.18;1.45;;;;;;;11.55;98.95;98913.25;8341203;28;20086;-49
2022/09/27 16:33:49;;;;;;;5.18;1.70;;;;;;;11.58;98.86;98907.47;8342333;28;20072;-53
2022/09/27 16:37:50;;;;;;;5.05;2.63;;;;;;;11.54;99.71;98910.75;8338822;28;20606;-49
2022/09/27 16:41:51;;;;;;;6.30;1.70;;;;;;;11.43;100.00;98901.22;8336931;28;20450;-50
2022/09/27 16:45:51;;;;;;;4.80;2.15;;;;;;;11.28;100.00;98900.34;8330061;28;20037;-50
2022/09/27 16:54:14;;;;;;;3.42;2.70;;;;;;;11.16;100.00;98892.91;8329614;28;20044;-49
2022/09/27 16:58:14;;;;;;;10.85;4.25;;;;;;;11.14;100.00;98893.09;8345126;28;20494;-49
2022/09/27 17:02:16;;;;;;;7.72;3.63;;;;;;;11.12;100.00;98884.31;8336075;28;20536;-49
2022/09/27 17:06:18;;;;;;;23.70;11.07;;;;;;;11.12;100.00;98891.56;8346528;28;20498;-49
2022/09/27 17:10:20;;;;;;;5.88;3.38;;;;;;;11.25;100.00;98889.91;8351055;28;20064;-50
2022/09/27 17:14:21;;;;;;;3.70;2.42;;;;;;;11.16;100.00;98891.00;8345609;28;20087;-48
2022/09/27 17:18:21;;;;;;;7.18;4.38;;;;;;;11.06;100.00;98884.19;8339694;28;20056;-49
2022/09/27 17:22:22;;;;;;;9.27;4.00;;;;;;;10.95;100.00;98877.34;8339498;28;20068;-49
2022/09/27 17:26:23;;;;;;;9.27;4.20;;;;;;;10.97;100.00;98869.06;8351409;28;20080;-48
2022/09/27 17:30:23;;;;;;;31.88;11.07;;;;;;;10.92;100.00;98866.91;8325433;28;20087;-49
2022/09/27 17:34:24;;;;;;;9.38;4.65;;;;;;;10.94;100.00;98864.00;8346688;28;20056;-49
2022/09/27 17:38:24;;;;;;;9.02;4.50;;;;;;;10.92;100.00;98861.50;8350727;28;20036;-49
2022/09/27 17:42:27;;;;;;;13.57;4.75;;;;;;;10.93;100.00;98863.19;8335705;28;20390;-48
2022/09/27 17:46:31;;;;;;;4.60;3.58;;;;;;;10.92;100.00;98866.09;8342194;28;20053;-49
2022/09/27 17:50:31;;;;;;;5.20;3.27;;;;;;;10.92;100.00;98858.78;8346322;28;20037;-50
2022/09/27 17:54:32;;;;;;;11.60;5.22;;;;;;;10.89;100.00;98861.03;8325884;28;20056;-49
2022/09/27 17:58:32;;;;;;;26.07;14.70;;;;;;;10.95;100.00;98861.13;8323389;28;20091;-49
2022/09/27 18:02:33;;;;;;;7.57;4.57;;;;;;;10.97;100.00;98858.25;8336094;28;20794;-51
2022/09/27 18:06:39;;;;;;;7.53;4.50;;;;;;;11.05;100.00;98860.88;8333097;28;20141;-49
2022/09/27 18:10:39;;;;;;;20.55;12.73;;;;;;;11.06;100.00;98852.59;8328828;28;20041;-50
2022/09/27 18:14:40;;;;;;;9.57;4.78;;;;;;;11.04;100.00;98865.44;8348201;28;20052;-49
2022/09/27 18:18:43;;;;;;;7.45;4.32;;;;;;;11.02;100.00;98878.31;8339601;28;20059;-50
2022/09/27 18:22:44;;;;;;;10.38;5.00;;;;;;;10.95;100.00;98849.50;8327116;28;20124;-52
2022/09/27 18:26:47;;;;;;;8.30;4.72;;;;;;;10.98;100.00;98830.19;8347010;28;20510;-50
2022/09/27 18:30:48;;;;;;;5.45;3.50;;;;;;;10.92;100.00;98829.06;8321531;28;20053;-50
2022/09/27 18:34:48;;;;;;;7.22;4.15;;;;;;;10.87;100.00;98827.94;8345499;28;20044;-51
2022/09/27 18:38:54;;;;;;;6.50;2.95;;;;;;;10.77;100.00;98820.06;8337473;28;20050;-53
2022/09/27 18:42:55;;;;;;;7.55;2.90;;;;;;;10.84;100.00;98815.63;8334344;28;20486;-49
2022/09/27 18:46:56;;;;;;;8.27;3.00;;;;;;;10.91;100.00;98815.72;8340280;28;20453;-50
2022/09/27 18:50:58;;;;;;;8.15;2.45;;;;;;;10.84;100.00;98804.81;8335694;28;20042;-51
2022/09/27 18:54:59;;;;;;;5.85;2.63;;;;;;;10.88;100.00;98799.88;8339693;28;20048;-51
2022/09/27 18:58:59;;;;;;;4.43;2.90;;;;;;;10.91;100.00;98789.53;8327437;28;20193;-50
2022/09/27 19:03:00;;;;;;;6.60;3.10;;;;;;;10.97;100.00;98786.09;8330061;28;20041;-52
2022/09/27 19:07:00;;;;;;;5.65;2.83;;;;;;;11.01;100.00;98784.69;8333999;28;20051;-50
2022/09/27 19:11:04;;;;;;;7.25;2.78;;;;;;;11.01;100.00;98768.47;8338201;28;20133;-50
2022/09/27 19:15:05;;;;;;;5.63;2.78;;;;;;;10.98;100.00;98768.00;8343925;28;20037;-49
2022/09/27 19:19:06;;;;;;;5.28;2.90;;;;;;;10.94;100.00;98772.94;8334318;28;20042;-49
2022/09/27 19:23:06;;;;;;;8.07;2.88;;;;;;;10.89;100.00;98769.94;8332504;28;20033;-49
2022/09/27 19:27:07;;;;;;;6.60;2.97;;;;;;;10.83;100.00;98770.69;8341475;28;20402;-51
2022/09/27 19:31:14;;;;;;;4.90;2.63;;;;;;;10.84;100.00;98768.81;8334284;28;20036;-50
2022/09/27 19:35:14;;;;;;;3.58;2.05;;;;;;;10.88;100.00;98762.88;8345118;28;20081;-50
2022/09/27 19:39:15;;;;;;;4.22;2.20;;;;;;;10.93;100.00;98757.75;8344548;28;20280;-49
2022/09/27 19:43:15;;;;;;;3.72;2.10;;;;;;;10.92;100.00;98756.06;8345044;28;20040;-50
2022/09/27 19:47:16;;;;;;;6.57;2.05;;;;;;;10.92;100.00;98763.34;8348843;28;20553;-49
2022/09/27 19:51:19;;;;;;;4.93;2.15;;;;;;;10.96;100.00;98749.28;8348246;28;20043;-49
2022/09/27 19:55:19;;;;;;;6.25;1.80;;;;;;;11.01;100.00;98741.41;8343094;28;20095;-50